Delray, WV (26714)

6:28 PM EDT on August 21, 2014 (GMT -0400)
Our Lady's Mount, Short Mountain WV | Change Station
CLOSE
Current Station
Personal Weather Station
Location: Delray, WV
Elevation: 1201 ft
Nearby Weather Stations

Elev 1201 ft 39.18 °N, 78.64 °W | Updated 5 minutes ago

Scattered Clouds
Scattered Clouds
73.4 °F
Feels Like 73 °F
N
1.7
Wind Variable Wind from NE

Today
High -- | Low -- °F
--% Chance of Precip.
Yesterday
High -- | Low -- °F
Precip. -- in
6:33 AM 8:01 PM
Waning Crescent, 12% visible
Pressure 30.01 in
Visibility 10.0 miles
Clouds Scattered Clouds 8000 ft
Scattered Clouds 12000 ft
Heat Index 73 °F
Dew Point 68 °F
Humidity 84%
Rainfall 0.09 in
Snow Depth Not available.
UV 1 out of 12
Pollen 9.10 out of 12
Air Quality Not available.
Flu Activity Not available.
METAR KOKV 212215Z AUTO 27006KT 10SM SCT080 SCT120 27/18 A3001 RMK AO2

More Conditions Fewer Conditions

Pressure 30.01 in
Visibility 10.0 miles
Clouds Scattered Clouds 8000 ft
Scattered Clouds 12000 ft
Heat Index 73 °F
Dew Point 68 °F
Humidity 84%
Rainfall 0.09 in
Snow Depth Not available.
UV 1 out of 12
Pollen 9.10 out of 12
Air Quality Not available.
Flu Activity Not available.
METAR KOKV 212215Z AUTO 27006KT 10SM SCT080 SCT120 27/18 A3001 RMK AO2

More Conditions Fewer Conditions

10-Day Weather Forecast

Almanac

Astronomy

Aug. 21, 2014 Rise Set
Actual Time 6:33 AM EDT 8:01 PM EDT
Civil Twilight 6:04 AM EDT 8:29 PM EDT
Nautical Twilight 5:31 AM EDT 9:03 PM EDT
Astronomical Twilight 4:55 AM EDT 9:38 PM EDT
Moon 3:02 AM EDT 5:28 PM EDT
Length of Visible Light 14h 24m
Length of Day
13h 28m
Tomorrow will be 2m 21s shorter.
Waning Crescent, 12% of the Moon is Illuminated
Today
Waning Crescent
Aug 25
New
Sep 2
First Quarter
Sep 8
Full
Sep 15
Last Quarter

Today's Extremes

State Highs State Lows

Community

WunderPhotos

Upload Photos

1,746,038 photos uploaded!

WunderBlogs® & News

Nearby

Snow Depth

Station Depth Elevation
No new snow has been reported.

Earthquake Activity

City Distance Mag. Time & Date
No recent earthquake activity has been reported nearby.
Minimum magnitude displayed is 2.5.

Coastal Water Temperatures

Place Temperature
No Stations Reporting

Nearby Weather Stations